sensor_id;sensor_type;location;lat;lon;timestamp;P1;durP1;ratioP1;P2;durP2;ratioP2
22097;SDS011;11215;51.938;8.464;2023-07-13T00:01:27;2.53;;;1.50;;
22097;SDS011;11215;51.938;8.464;2023-07-13T00:03:53;3.87;;;1.80;;
22097;SDS011;11215;51.938;8.464;2023-07-13T00:06:19;2.93;;;1.43;;
22097;SDS011;11215;51.938;8.464;2023-07-13T00:08:45;3.23;;;1.87;;
22097;SDS011;11215;51.938;8.464;2023-07-13T00:11:12;2.80;;;1.70;;
22097;SDS011;11215;51.938;8.464;2023-07-13T00:13:39;2.90;;;1.60;;
22097;SDS011;11215;51.938;8.464;2023-07-13T00:16:05;4.13;;;1.60;;
22097;SDS011;11215;51.938;8.464;2023-07-13T00:18:31;3.43;;;1.80;;
22097;SDS011;11215;51.938;8.464;2023-07-13T00:20:57;2.10;;;1.77;;
22097;SDS011;11215;51.938;8.464;2023-07-13T00:23:30;6.77;;;2.00;;
22097;SDS011;11215;51.938;8.464;2023-07-13T00:25:58;2.30;;;1.47;;
22097;SDS011;11215;51.938;8.464;2023-07-13T00:28:25;1.77;;;1.60;;
22097;SDS011;11215;51.938;8.464;2023-07-13T00:30:50;2.17;;;1.80;;
22097;SDS011;11215;51.938;8.464;2023-07-13T00:33:16;3.47;;;1.90;;
22097;SDS011;11215;51.938;8.464;2023-07-13T00:35:41;2.17;;;1.80;;
22097;SDS011;11215;51.938;8.464;2023-07-13T00:38:08;3.17;;;1.60;;
22097;SDS011;11215;51.938;8.464;2023-07-13T00:40:34;3.23;;;1.80;;
22097;SDS011;11215;51.938;8.464;2023-07-13T00:43:00;4.00;;;2.10;;
22097;SDS011;11215;51.938;8.464;2023-07-13T00:47:51;3.00;;;1.67;;
22097;SDS011;11215;51.938;8.464;2023-07-13T00:50:18;3.53;;;1.80;;
22097;SDS011;11215;51.938;8.464;2023-07-13T00:52:46;3.27;;;1.73;;
22097;SDS011;11215;51.938;8.464;2023-07-13T00:55:16;3.57;;;1.90;;
22097;SDS011;11215;51.938;8.464;2023-07-13T00:57:43;2.37;;;1.63;;
22097;SDS011;11215;51.938;8.464;2023-07-13T01:00:09;3.80;;;1.80;;
22097;SDS011;11215;51.938;8.464;2023-07-13T01:02:37;2.80;;;1.60;;
22097;SDS011;11215;51.938;8.464;2023-07-13T01:05:15;2.33;;;1.80;;
22097;SDS011;11215;51.938;8.464;2023-07-13T01:07:43;2.90;;;1.50;;
22097;SDS011;11215;51.938;8.464;2023-07-13T01:10:10;2.13;;;1.80;;
22097;SDS011;11215;51.938;8.464;2023-07-13T01:12:37;4.00;;;1.83;;
22097;SDS011;11215;51.938;8.464;2023-07-13T01:15:03;3.87;;;1.87;;
22097;SDS011;11215;51.938;8.464;2023-07-13T01:17:29;1.90;;;1.50;;
22097;SDS011;11215;51.938;8.464;2023-07-13T01:19:58;6.67;;;2.30;;
22097;SDS011;11215;51.938;8.464;2023-07-13T01:22:23;3.27;;;1.80;;
22097;SDS011;11215;51.938;8.464;2023-07-13T01:24:51;3.40;;;1.60;;
22097;SDS011;11215;51.938;8.464;2023-07-13T01:27:23;4.70;;;1.87;;
22097;SDS011;11215;51.938;8.464;2023-07-13T01:29:50;3.40;;;2.20;;
22097;SDS011;11215;51.938;8.464;2023-07-13T01:32:26;4.60;;;2.10;;
22097;SDS011;11215;51.938;8.464;2023-07-13T01:34:52;4.97;;;2.00;;
22097;SDS011;11215;51.938;8.464;2023-07-13T01:37:22;2.07;;;1.87;;
22097;SDS011;11215;51.938;8.464;2023-07-13T01:39:49;3.97;;;2.10;;
22097;SDS011;11215;51.938;8.464;2023-07-13T01:42:15;3.53;;;1.70;;
22097;SDS011;11215;51.938;8.464;2023-07-13T01:44:40;4.07;;;2.30;;
22097;SDS011;11215;51.938;8.464;2023-07-13T01:47:06;5.13;;;2.07;;
22097;SDS011;11215;51.938;8.464;2023-07-13T01:49:32;3.03;;;2.00;;
22097;SDS011;11215;51.938;8.464;2023-07-13T01:51:58;3.50;;;2.30;;
22097;SDS011;11215;51.938;8.464;2023-07-13T01:54:23;2.83;;;2.00;;
22097;SDS011;11215;51.938;8.464;2023-07-13T01:56:49;3.47;;;1.47;;
22097;SDS011;11215;51.938;8.464;2023-07-13T01:59:14;2.57;;;1.67;;
22097;SDS011;11215;51.938;8.464;2023-07-13T02:01:40;3.27;;;2.03;;
22097;SDS011;11215;51.938;8.464;2023-07-13T02:04:06;7.50;;;2.20;;
22097;SDS011;11215;51.938;8.464;2023-07-13T02:06:31;2.90;;;1.97;;
22097;SDS011;11215;51.938;8.464;2023-07-13T02:08:57;3.17;;;1.97;;
22097;SDS011;11215;51.938;8.464;2023-07-13T02:11:23;2.87;;;2.03;;
22097;SDS011;11215;51.938;8.464;2023-07-13T02:13:50;4.53;;;1.70;;
22097;SDS011;11215;51.938;8.464;2023-07-13T02:16:16;2.97;;;1.87;;
22097;SDS011;11215;51.938;8.464;2023-07-13T02:18:41;6.43;;;2.17;;
22097;SDS011;11215;51.938;8.464;2023-07-13T02:21:07;2.97;;;2.00;;
22097;SDS011;11215;51.938;8.464;2023-07-13T02:23:33;5.40;;;2.00;;
22097;SDS011;11215;51.938;8.464;2023-07-13T02:25:59;4.53;;;1.93;;
22097;SDS011;11215;51.938;8.464;2023-07-13T02:28:27;6.73;;;2.13;;
22097;SDS011;11215;51.938;8.464;2023-07-13T02:30:53;6.17;;;2.30;;
22097;SDS011;11215;51.938;8.464;2023-07-13T02:33:19;2.70;;;1.77;;
22097;SDS011;11215;51.938;8.464;2023-07-13T02:35:44;6.07;;;2.00;;
22097;SDS011;11215;51.938;8.464;2023-07-13T02:38:10;2.87;;;1.80;;
22097;SDS011;11215;51.938;8.464;2023-07-13T02:40:35;3.67;;;1.73;;
22097;SDS011;11215;51.938;8.464;2023-07-13T02:43:02;3.97;;;1.80;;
22097;SDS011;11215;51.938;8.464;2023-07-13T02:45:27;5.17;;;2.40;;
22097;SDS011;11215;51.938;8.464;2023-07-13T02:47:53;4.10;;;1.87;;
22097;SDS011;11215;51.938;8.464;2023-07-13T02:50:19;3.90;;;1.73;;
22097;SDS011;11215;51.938;8.464;2023-07-13T02:52:45;4.37;;;1.97;;
22097;SDS011;11215;51.938;8.464;2023-07-13T02:55:11;3.13;;;1.97;;
22097;SDS011;11215;51.938;8.464;2023-07-13T02:57:36;4.00;;;1.97;;
22097;SDS011;11215;51.938;8.464;2023-07-13T03:00:03;3.37;;;1.70;;
22097;SDS011;11215;51.938;8.464;2023-07-13T03:02:33;4.77;;;2.40;;
22097;SDS011;11215;51.938;8.464;2023-07-13T03:04:59;5.50;;;2.30;;
22097;SDS011;11215;51.938;8.464;2023-07-13T03:07:26;5.27;;;2.20;;
22097;SDS011;11215;51.938;8.464;2023-07-13T03:09:58;3.20;;;2.03;;
22097;SDS011;11215;51.938;8.464;2023-07-13T03:12:24;4.70;;;2.07;;
22097;SDS011;11215;51.938;8.464;2023-07-13T03:14:50;4.43;;;2.30;;
22097;SDS011;11215;51.938;8.464;2023-07-13T03:17:16;3.00;;;2.10;;
22097;SDS011;11215;51.938;8.464;2023-07-13T03:19:41;3.83;;;2.43;;
22097;SDS011;11215;51.938;8.464;2023-07-13T03:22:08;3.30;;;2.17;;
22097;SDS011;11215;51.938;8.464;2023-07-13T03:24:34;5.27;;;2.27;;
22097;SDS011;11215;51.938;8.464;2023-07-13T03:27:01;4.20;;;2.50;;
22097;SDS011;11215;51.938;8.464;2023-07-13T03:29:28;4.80;;;2.60;;
22097;SDS011;11215;51.938;8.464;2023-07-13T03:31:54;3.07;;;2.20;;
22097;SDS011;11215;51.938;8.464;2023-07-13T03:34:19;4.67;;;2.20;;
22097;SDS011;11215;51.938;8.464;2023-07-13T03:36:45;2.40;;;2.20;;
22097;SDS011;11215;51.938;8.464;2023-07-13T03:39:11;4.63;;;2.70;;
22097;SDS011;11215;51.938;8.464;2023-07-13T03:41:36;3.33;;;2.50;;
22097;SDS011;11215;51.938;8.464;2023-07-13T03:44:02;5.37;;;2.60;;
22097;SDS011;11215;51.938;8.464;2023-07-13T03:46:28;4.63;;;2.70;;
22097;SDS011;11215;51.938;8.464;2023-07-13T03:48:54;7.60;;;2.90;;
22097;SDS011;11215;51.938;8.464;2023-07-13T03:53:51;6.50;;;3.10;;
22097;SDS011;11215;51.938;8.464;2023-07-13T03:56:17;3.30;;;2.87;;
22097;SDS011;11215;51.938;8.464;2023-07-13T03:58:45;4.73;;;2.90;;
22097;SDS011;11215;51.938;8.464;2023-07-13T04:01:13;4.50;;;2.83;;
22097;SDS011;11215;51.938;8.464;2023-07-13T04:03:39;4.37;;;3.20;;
22097;SDS011;11215;51.938;8.464;2023-07-13T04:06:06;3.70;;;2.80;;
22097;SDS011;11215;51.938;8.464;2023-07-13T04:08:36;5.63;;;3.17;;
22097;SDS011;11215;51.938;8.464;2023-07-13T04:11:02;3.80;;;2.50;;
22097;SDS011;11215;51.938;8.464;2023-07-13T04:13:29;6.03;;;3.13;;
22097;SDS011;11215;51.938;8.464;2023-07-13T04:15:55;3.80;;;2.37;;
22097;SDS011;11215;51.938;8.464;2023-07-13T04:18:22;6.60;;;2.70;;
22097;SDS011;11215;51.938;8.464;2023-07-13T04:20:48;17.70;;;2.83;;
22097;SDS011;11215;51.938;8.464;2023-07-13T04:23:14;4.53;;;2.30;;
22097;SDS011;11215;51.938;8.464;2023-07-13T04:25:47;4.10;;;2.23;;
22097;SDS011;11215;51.938;8.464;2023-07-13T04:28:14;3.23;;;2.00;;
22097;SDS011;11215;51.938;8.464;2023-07-13T04:30:41;6.20;;;2.47;;
22097;SDS011;11215;51.938;8.464;2023-07-13T04:33:06;4.33;;;1.87;;
22097;SDS011;11215;51.938;8.464;2023-07-13T04:35:33;6.17;;;2.13;;
22097;SDS011;11215;51.938;8.464;2023-07-13T04:37:59;5.27;;;2.33;;
22097;SDS011;11215;51.938;8.464;2023-07-13T04:40:26;3.53;;;2.03;;
22097;SDS011;11215;51.938;8.464;2023-07-13T04:42:52;5.77;;;1.90;;
22097;SDS011;11215;51.938;8.464;2023-07-13T04:45:18;3.70;;;1.83;;
22097;SDS011;11215;51.938;8.464;2023-07-13T04:47:44;3.27;;;2.00;;
22097;SDS011;11215;51.938;8.464;2023-07-13T04:50:12;4.60;;;2.07;;
22097;SDS011;11215;51.938;8.464;2023-07-13T04:52:43;3.00;;;2.10;;
22097;SDS011;11215;51.938;8.464;2023-07-13T04:55:09;4.10;;;1.63;;
22097;SDS011;11215;51.938;8.464;2023-07-13T04:57:35;3.90;;;1.73;;
22097;SDS011;11215;51.938;8.464;2023-07-13T05:00:01;3.70;;;2.10;;
22097;SDS011;11215;51.938;8.464;2023-07-13T05:02:31;4.00;;;1.60;;
22097;SDS011;11215;51.938;8.464;2023-07-13T05:04:58;3.43;;;1.53;;
22097;SDS011;11215;51.938;8.464;2023-07-13T05:07:24;3.93;;;1.70;;
22097;SDS011;11215;51.938;8.464;2023-07-13T05:09:51;3.53;;;1.50;;
22097;SDS011;11215;51.938;8.464;2023-07-13T05:12:17;2.33;;;1.50;;
22097;SDS011;11215;51.938;8.464;2023-07-13T05:14:43;2.70;;;1.45;;
22097;SDS011;11215;51.938;8.464;2023-07-13T05:17:09;3.20;;;1.48;;
22097;SDS011;11215;51.938;8.464;2023-07-13T05:19:35;3.83;;;1.63;;
22097;SDS011;11215;51.938;8.464;2023-07-13T05:22:00;4.95;;;1.80;;
22097;SDS011;11215;51.938;8.464;2023-07-13T05:24:27;3.88;;;1.50;;
22097;SDS011;11215;51.938;8.464;2023-07-13T05:26:53;4.78;;;1.40;;
22097;SDS011;11215;51.938;8.464;2023-07-13T05:29:19;2.80;;;1.90;;
22097;SDS011;11215;51.938;8.464;2023-07-13T05:31:46;4.03;;;1.70;;
22097;SDS011;11215;51.938;8.464;2023-07-13T05:34:11;2.70;;;1.60;;
22097;SDS011;11215;51.938;8.464;2023-07-13T05:36:37;3.53;;;1.50;;
22097;SDS011;11215;51.938;8.464;2023-07-13T05:39:03;2.90;;;1.38;;
22097;SDS011;11215;51.938;8.464;2023-07-13T05:41:29;3.85;;;1.52;;
22097;SDS011;11215;51.938;8.464;2023-07-13T05:43:54;3.25;;;1.25;;
22097;SDS011;11215;51.938;8.464;2023-07-13T05:46:20;3.17;;;1.40;;
22097;SDS011;11215;51.938;8.464;2023-07-13T05:48:46;4.70;;;1.42;;
22097;SDS011;11215;51.938;8.464;2023-07-13T05:51:11;2.55;;;1.40;;
22097;SDS011;11215;51.938;8.464;2023-07-13T05:53:37;2.38;;;1.58;;
22097;SDS011;11215;51.938;8.464;2023-07-13T05:56:03;2.65;;;1.60;;
22097;SDS011;11215;51.938;8.464;2023-07-13T05:58:28;4.50;;;2.17;;
22097;SDS011;11215;51.938;8.464;2023-07-13T06:00:58;4.75;;;1.52;;
22097;SDS011;11215;51.938;8.464;2023-07-13T06:03:29;2.72;;;1.90;;
22097;SDS011;11215;51.938;8.464;2023-07-13T06:05:54;4.32;;;1.60;;
22097;SDS011;11215;51.938;8.464;2023-07-13T06:08:20;3.35;;;1.23;;
22097;SDS011;11215;51.938;8.464;2023-07-13T06:10:46;4.75;;;1.90;;
22097;SDS011;11215;51.938;8.464;2023-07-13T06:13:11;5.00;;;2.00;;
22097;SDS011;11215;51.938;8.464;2023-07-13T06:15:37;5.10;;;1.70;;
22097;SDS011;11215;51.938;8.464;2023-07-13T06:18:03;2.50;;;1.50;;
22097;SDS011;11215;51.938;8.464;2023-07-13T06:20:28;3.83;;;1.83;;
22097;SDS011;11215;51.938;8.464;2023-07-13T06:22:54;5.30;;;1.88;;
22097;SDS011;11215;51.938;8.464;2023-07-13T06:25:20;6.03;;;1.85;;
22097;SDS011;11215;51.938;8.464;2023-07-13T06:27:46;4.70;;;1.70;;
22097;SDS011;11215;51.938;8.464;2023-07-13T06:30:11;5.93;;;2.07;;
22097;SDS011;11215;51.938;8.464;2023-07-13T06:32:37;3.60;;;1.80;;
22097;SDS011;11215;51.938;8.464;2023-07-13T06:35:03;3.87;;;1.83;;
22097;SDS011;11215;51.938;8.464;2023-07-13T06:37:29;3.83;;;1.67;;
22097;SDS011;11215;51.938;8.464;2023-07-13T06:39:55;5.20;;;1.90;;
22097;SDS011;11215;51.938;8.464;2023-07-13T06:42:20;3.70;;;1.67;;
22097;SDS011;11215;51.938;8.464;2023-07-13T06:44:46;5.30;;;2.00;;
22097;SDS011;11215;51.938;8.464;2023-07-13T06:47:12;5.43;;;1.97;;
22097;SDS011;11215;51.938;8.464;2023-07-13T06:49:37;5.10;;;1.80;;
22097;SDS011;11215;51.938;8.464;2023-07-13T06:52:03;7.03;;;2.20;;
22097;SDS011;11215;51.938;8.464;2023-07-13T06:54:29;4.10;;;2.03;;
22097;SDS011;11215;51.938;8.464;2023-07-13T06:56:55;7.67;;;2.20;;
22097;SDS011;11215;51.938;8.464;2023-07-13T06:59:22;4.40;;;2.13;;
22097;SDS011;11215;51.938;8.464;2023-07-13T07:01:47;7.47;;;2.00;;
22097;SDS011;11215;51.938;8.464;2023-07-13T07:04:13;4.83;;;2.17;;
22097;SDS011;11215;51.938;8.464;2023-07-13T07:06:39;3.27;;;2.27;;
22097;SDS011;11215;51.938;8.464;2023-07-13T07:09:04;3.80;;;1.97;;
22097;SDS011;11215;51.938;8.464;2023-07-13T07:11:30;6.27;;;2.20;;
22097;SDS011;11215;51.938;8.464;2023-07-13T07:13:56;4.17;;;2.23;;
22097;SDS011;11215;51.938;8.464;2023-07-13T07:16:22;7.73;;;2.20;;
22097;SDS011;11215;51.938;8.464;2023-07-13T07:18:49;4.87;;;2.27;;
22097;SDS011;11215;51.938;8.464;2023-07-13T07:21:15;3.80;;;2.10;;
22097;SDS011;11215;51.938;8.464;2023-07-13T07:23:41;7.03;;;2.50;;
22097;SDS011;11215;51.938;8.464;2023-07-13T07:26:07;6.43;;;2.00;;
22097;SDS011;11215;51.938;8.464;2023-07-13T07:28:35;6.97;;;2.57;;
22097;SDS011;11215;51.938;8.464;2023-07-13T07:31:00;4.30;;;2.50;;
22097;SDS011;11215;51.938;8.464;2023-07-13T07:33:26;5.23;;;2.40;;
22097;SDS011;11215;51.938;8.464;2023-07-13T07:35:52;7.83;;;2.47;;
22097;SDS011;11215;51.938;8.464;2023-07-13T07:38:18;7.10;;;2.57;;
22097;SDS011;11215;51.938;8.464;2023-07-13T07:40:44;3.33;;;2.70;;
22097;SDS011;11215;51.938;8.464;2023-07-13T07:43:11;5.97;;;2.60;;
22097;SDS011;11215;51.938;8.464;2023-07-13T07:45:38;8.83;;;2.97;;
22097;SDS011;11215;51.938;8.464;2023-07-13T07:48:04;5.23;;;3.10;;
22097;SDS011;11215;51.938;8.464;2023-07-13T07:50:31;5.60;;;2.77;;
22097;SDS011;11215;51.938;8.464;2023-07-13T07:52:56;6.40;;;3.17;;
22097;SDS011;11215;51.938;8.464;2023-07-13T07:55:22;5.67;;;2.90;;
22097;SDS011;11215;51.938;8.464;2023-07-13T07:57:50;7.20;;;3.17;;
22097;SDS011;11215;51.938;8.464;2023-07-13T08:00:15;6.63;;;3.60;;
22097;SDS011;11215;51.938;8.464;2023-07-13T08:02:41;7.30;;;2.90;;
22097;SDS011;11215;51.938;8.464;2023-07-13T08:05:08;5.23;;;3.00;;
22097;SDS011;11215;51.938;8.464;2023-07-13T08:07:34;5.57;;;2.60;;
22097;SDS011;11215;51.938;8.464;2023-07-13T08:10:01;4.70;;;3.00;;
22097;SDS011;11215;51.938;8.464;2023-07-13T08:12:27;5.53;;;2.97;;
22097;SDS011;11215;51.938;8.464;2023-07-13T08:14:52;7.83;;;2.73;;
22097;SDS011;11215;51.938;8.464;2023-07-13T08:17:19;4.97;;;2.93;;
22097;SDS011;11215;51.938;8.464;2023-07-13T08:19:45;6.40;;;2.70;;
22097;SDS011;11215;51.938;8.464;2023-07-13T08:22:11;6.23;;;2.70;;
22097;SDS011;11215;51.938;8.464;2023-07-13T08:24:36;8.10;;;2.53;;
22097;SDS011;11215;51.938;8.464;2023-07-13T08:27:02;5.37;;;2.40;;
22097;SDS011;11215;51.938;8.464;2023-07-13T08:29:28;5.63;;;2.50;;
22097;SDS011;11215;51.938;8.464;2023-07-13T08:31:57;7.10;;;2.73;;
22097;SDS011;11215;51.938;8.464;2023-07-13T08:34:23;4.67;;;2.90;;
22097;SDS011;11215;51.938;8.464;2023-07-13T08:36:48;4.77;;;2.40;;
22097;SDS011;11215;51.938;8.464;2023-07-13T08:39:14;5.20;;;2.33;;
22097;SDS011;11215;51.938;8.464;2023-07-13T08:41:39;5.23;;;2.83;;
22097;SDS011;11215;51.938;8.464;2023-07-13T08:44:06;5.93;;;2.40;;
22097;SDS011;11215;51.938;8.464;2023-07-13T08:46:44;5.50;;;2.53;;
22097;SDS011;11215;51.938;8.464;2023-07-13T08:49:13;7.03;;;2.37;;
22097;SDS011;11215;51.938;8.464;2023-07-13T08:51:46;7.30;;;3.00;;
22097;SDS011;11215;51.938;8.464;2023-07-13T08:57:15;6.23;;;2.90;;
22097;SDS011;11215;51.938;8.464;2023-07-13T08:59:42;6.67;;;1.90;;
22097;SDS011;11215;51.938;8.464;2023-07-13T09:02:18;7.60;;;2.97;;
22097;SDS011;11215;51.938;8.464;2023-07-13T09:05:03;6.03;;;2.80;;
22097;SDS011;11215;51.938;8.464;2023-07-13T09:10:29;5.80;;;2.60;;
22097;SDS011;11215;51.938;8.464;2023-07-13T09:15:35;6.30;;;2.80;;
22097;SDS011;11215;51.938;8.464;2023-07-13T09:18:09;6.10;;;3.27;;
22097;SDS011;11215;51.938;8.464;2023-07-13T09:20:49;4.87;;;2.53;;
22097;SDS011;11215;51.938;8.464;2023-07-13T09:23:21;3.27;;;2.27;;
22097;SDS011;11215;51.938;8.464;2023-07-13T09:25:49;11.30;;;3.30;;
22097;SDS011;11215;51.938;8.464;2023-07-13T09:28:25;6.60;;;2.90;;
22097;SDS011;11215;51.938;8.464;2023-07-13T09:33:40;7.30;;;2.97;;
22097;SDS011;11215;51.938;8.464;2023-07-13T09:36:24;3.33;;;2.70;;
22097;SDS011;11215;51.938;8.464;2023-07-13T09:44:16;2.87;;;2.50;;
22097;SDS011;11215;51.938;8.464;2023-07-13T09:46:44;3.90;;;3.07;;
22097;SDS011;11215;51.938;8.464;2023-07-13T09:49:11;5.43;;;3.30;;
22097;SDS011;11215;51.938;8.464;2023-07-13T09:51:38;6.53;;;3.30;;
22097;SDS011;11215;51.938;8.464;2023-07-13T09:54:20;3.37;;;3.07;;
22097;SDS011;11215;51.938;8.464;2023-07-13T09:56:50;5.07;;;3.63;;
22097;SDS011;11215;51.938;8.464;2023-07-13T09:59:29;3.57;;;3.27;;
22097;SDS011;11215;51.938;8.464;2023-07-13T10:01:57;5.00;;;3.47;;
22097;SDS011;11215;51.938;8.464;2023-07-13T10:04:41;3.83;;;3.43;;
22097;SDS011;11215;51.938;8.464;2023-07-13T10:07:08;3.60;;;3.30;;
22097;SDS011;11215;51.938;8.464;2023-07-13T10:09:38;5.10;;;3.60;;
22097;SDS011;11215;51.938;8.464;2023-07-13T10:12:04;5.33;;;4.37;;
22097;SDS011;11215;51.938;8.464;2023-07-13T10:14:38;5.10;;;4.17;;
22097;SDS011;11215;51.938;8.464;2023-07-13T10:17:08;4.40;;;3.30;;
22097;SDS011;11215;51.938;8.464;2023-07-13T10:19:38;5.37;;;3.77;;
22097;SDS011;11215;51.938;8.464;2023-07-13T10:22:16;4.20;;;3.83;;
22097;SDS011;11215;51.938;8.464;2023-07-13T10:24:51;5.83;;;3.97;;
22097;SDS011;11215;51.938;8.464;2023-07-13T10:27:38;4.17;;;3.77;;
22097;SDS011;11215;51.938;8.464;2023-07-13T10:30:13;8.83;;;4.37;;
22097;SDS011;11215;51.938;8.464;2023-07-13T10:32:45;6.93;;;3.70;;
22097;SDS011;11215;51.938;8.464;2023-07-13T10:35:13;5.17;;;4.23;;
22097;SDS011;11215;51.938;8.464;2023-07-13T10:38:01;3.90;;;3.20;;
22097;SDS011;11215;51.938;8.464;2023-07-13T10:40:39;6.47;;;3.93;;
22097;SDS011;11215;51.938;8.464;2023-07-13T10:43:16;4.93;;;3.67;;
22097;SDS011;11215;51.938;8.464;2023-07-13T10:45:46;6.33;;;3.77;;
22097;SDS011;11215;51.938;8.464;2023-07-13T10:48:15;4.60;;;4.20;;
22097;SDS011;11215;51.938;8.464;2023-07-13T10:50:43;4.37;;;3.80;;
22097;SDS011;11215;51.938;8.464;2023-07-13T10:53:30;5.80;;;3.57;;
22097;SDS011;11215;51.938;8.464;2023-07-13T10:55:59;6.00;;;3.40;;
22097;SDS011;11215;51.938;8.464;2023-07-13T10:58:33;6.17;;;2.53;;
22097;SDS011;11215;51.938;8.464;2023-07-13T11:03:37;4.50;;;3.20;;
22097;SDS011;11215;51.938;8.464;2023-07-13T11:13:56;3.43;;;2.47;;
22097;SDS011;11215;51.938;8.464;2023-07-13T11:18:50;4.60;;;2.40;;
22097;SDS011;11215;51.938;8.464;2023-07-13T11:21:28;3.67;;;2.30;;
22097;SDS011;11215;51.938;8.464;2023-07-13T11:24:13;6.37;;;2.37;;
22097;SDS011;11215;51.938;8.464;2023-07-13T11:32:03;3.20;;;2.43;;
22097;SDS011;11215;51.938;8.464;2023-07-13T11:34:56;3.47;;;2.27;;
22097;SDS011;11215;51.938;8.464;2023-07-13T11:37:22;3.90;;;2.53;;
22097;SDS011;11215;51.938;8.464;2023-07-13T11:39:49;4.57;;;2.80;;
22097;SDS011;11215;51.938;8.464;2023-07-13T11:42:17;3.73;;;2.27;;
22097;SDS011;11215;51.938;8.464;2023-07-13T11:44:46;4.30;;;2.50;;
22097;SDS011;11215;51.938;8.464;2023-07-13T11:47:16;6.80;;;3.07;;
22097;SDS011;11215;51.938;8.464;2023-07-13T11:49:47;5.47;;;3.03;;
22097;SDS011;11215;51.938;8.464;2023-07-13T11:52:19;4.37;;;2.60;;
22097;SDS011;11215;51.938;8.464;2023-07-13T11:54:49;5.10;;;2.53;;
22097;SDS011;11215;51.938;8.464;2023-07-13T11:57:30;3.73;;;2.47;;
22097;SDS011;11215;51.938;8.464;2023-07-13T11:59:59;4.50;;;2.83;;
22097;SDS011;11215;51.938;8.464;2023-07-13T12:02:35;3.13;;;2.60;;
22097;SDS011;11215;51.938;8.464;2023-07-13T12:05:04;4.23;;;2.90;;
22097;SDS011;11215;51.938;8.464;2023-07-13T12:07:32;3.40;;;2.80;;
22097;SDS011;11215;51.938;8.464;2023-07-13T12:12:34;5.27;;;2.47;;
22097;SDS011;11215;51.938;8.464;2023-07-13T12:15:00;4.47;;;2.80;;
22097;SDS011;11215;51.938;8.464;2023-07-13T12:17:25;3.07;;;2.73;;
22097;SDS011;11215;51.938;8.464;2023-07-13T12:19:52;2.90;;;2.57;;
22097;SDS011;11215;51.938;8.464;2023-07-13T12:22:18;5.03;;;2.80;;
22097;SDS011;11215;51.938;8.464;2023-07-13T12:24:46;3.90;;;3.37;;
22097;SDS011;11215;51.938;8.464;2023-07-13T12:27:18;3.40;;;2.93;;
22097;SDS011;11215;51.938;8.464;2023-07-13T12:29:49;3.97;;;3.20;;
22097;SDS011;11215;51.938;8.464;2023-07-13T12:32:23;4.93;;;3.27;;
22097;SDS011;11215;51.938;8.464;2023-07-13T12:34:54;3.73;;;3.30;;
22097;SDS011;11215;51.938;8.464;2023-07-13T12:37:43;4.13;;;3.10;;
22097;SDS011;11215;51.938;8.464;2023-07-13T12:40:17;2.97;;;2.77;;
22097;SDS011;11215;51.938;8.464;2023-07-13T12:42:47;3.37;;;3.07;;
22097;SDS011;11215;51.938;8.464;2023-07-13T12:45:21;4.57;;;2.97;;
22097;SDS011;11215;51.938;8.464;2023-07-13T12:47:58;3.23;;;2.90;;
22097;SDS011;11215;51.938;8.464;2023-07-13T12:50:33;3.20;;;2.90;;
22097;SDS011;11215;51.938;8.464;2023-07-13T12:53:04;3.63;;;2.83;;
22097;SDS011;11215;51.938;8.464;2023-07-13T12:55:45;4.03;;;2.90;;
22097;SDS011;11215;51.938;8.464;2023-07-13T12:58:21;3.13;;;2.60;;
22097;SDS011;11215;51.938;8.464;2023-07-13T13:00:57;3.33;;;2.50;;
22097;SDS011;11215;51.938;8.464;2023-07-13T13:03:35;2.83;;;1.90;;
22097;SDS011;11215;51.938;8.464;2023-07-13T13:06:17;2.60;;;2.30;;
22097;SDS011;11215;51.938;8.464;2023-07-13T13:08:53;2.80;;;1.90;;
22097;SDS011;11215;51.938;8.464;2023-07-13T13:11:24;3.10;;;1.80;;
22097;SDS011;11215;51.938;8.464;2023-07-13T13:13:51;4.55;;;2.30;;
22097;SDS011;11215;51.938;8.464;2023-07-13T13:16:28;3.23;;;2.03;;
22097;SDS011;11215;51.938;8.464;2023-07-13T13:19:02;3.00;;;2.00;;
22097;SDS011;11215;51.938;8.464;2023-07-13T13:21:42;3.90;;;2.13;;
22097;SDS011;11215;51.938;8.464;2023-07-13T13:24:17;4.90;;;2.45;;
22097;SDS011;11215;51.938;8.464;2023-07-13T13:26:45;3.42;;;2.00;;
22097;SDS011;11215;51.938;8.464;2023-07-13T13:29:13;2.47;;;2.07;;
22097;SDS011;11215;51.938;8.464;2023-07-13T13:31:40;2.90;;;2.33;;
22097;SDS011;11215;51.938;8.464;2023-07-13T13:34:10;2.90;;;2.30;;
22097;SDS011;11215;51.938;8.464;2023-07-13T13:36:38;3.58;;;2.33;;
22097;SDS011;11215;51.938;8.464;2023-07-13T13:39:05;5.35;;;2.60;;
22097;SDS011;11215;51.938;8.464;2023-07-13T13:41:44;5.95;;;2.20;;
22097;SDS011;11215;51.938;8.464;2023-07-13T13:44:10;3.60;;;2.67;;
22097;SDS011;11215;51.938;8.464;2023-07-13T13:46:35;3.90;;;2.60;;
22097;SDS011;11215;51.938;8.464;2023-07-13T13:49:01;5.00;;;2.50;;
22097;SDS011;11215;51.938;8.464;2023-07-13T13:51:27;3.30;;;2.20;;
22097;SDS011;11215;51.938;8.464;2023-07-13T13:53:54;4.57;;;2.60;;
22097;SDS011;11215;51.938;8.464;2023-07-13T13:56:20;5.10;;;2.40;;
22097;SDS011;11215;51.938;8.464;2023-07-13T13:58:46;4.27;;;2.47;;
22097;SDS011;11215;51.938;8.464;2023-07-13T14:01:19;3.20;;;2.07;;
22097;SDS011;11215;51.938;8.464;2023-07-13T14:03:47;2.90;;;2.20;;
22097;SDS011;11215;51.938;8.464;2023-07-13T14:06:16;5.30;;;2.60;;
22097;SDS011;11215;51.938;8.464;2023-07-13T14:08:42;5.33;;;2.27;;
22097;SDS011;11215;51.938;8.464;2023-07-13T14:11:12;4.90;;;2.33;;
22097;SDS011;11215;51.938;8.464;2023-07-13T14:13:42;3.07;;;2.13;;
22097;SDS011;11215;51.938;8.464;2023-07-13T14:16:12;9.10;;;3.20;;
22097;SDS011;11215;51.938;8.464;2023-07-13T14:18:42;3.07;;;2.33;;
22097;SDS011;11215;51.938;8.464;2023-07-13T14:21:13;3.73;;;2.60;;
22097;SDS011;11215;51.938;8.464;2023-07-13T14:23:40;4.13;;;2.93;;
22097;SDS011;11215;51.938;8.464;2023-07-13T14:26:10;4.30;;;2.47;;
22097;SDS011;11215;51.938;8.464;2023-07-13T14:28:38;3.53;;;2.17;;
22097;SDS011;11215;51.938;8.464;2023-07-13T14:31:09;2.70;;;2.10;;
22097;SDS011;11215;51.938;8.464;2023-07-13T14:33:35;2.67;;;2.17;;
22097;SDS011;11215;51.938;8.464;2023-07-13T14:36:01;3.70;;;2.30;;
22097;SDS011;11215;51.938;8.464;2023-07-13T14:38:28;3.60;;;2.60;;
22097;SDS011;11215;51.938;8.464;2023-07-13T14:40:53;4.70;;;2.40;;
22097;SDS011;11215;51.938;8.464;2023-07-13T14:43:19;2.87;;;2.10;;
22097;SDS011;11215;51.938;8.464;2023-07-13T14:45:46;4.17;;;2.63;;
22097;SDS011;11215;51.938;8.464;2023-07-13T14:48:19;3.50;;;2.60;;
22097;SDS011;11215;51.938;8.464;2023-07-13T14:50:49;3.03;;;2.30;;
22097;SDS011;11215;51.938;8.464;2023-07-13T14:53:21;3.27;;;2.63;;
22097;SDS011;11215;51.938;8.464;2023-07-13T14:55:47;3.53;;;2.60;;
22097;SDS011;11215;51.938;8.464;2023-07-13T14:58:12;4.00;;;2.70;;
22097;SDS011;11215;51.938;8.464;2023-07-13T15:00:39;2.70;;;2.33;;
22097;SDS011;11215;51.938;8.464;2023-07-13T15:03:05;5.33;;;2.90;;
22097;SDS011;11215;51.938;8.464;2023-07-13T15:05:46;5.23;;;2.63;;
22097;SDS011;11215;51.938;8.464;2023-07-13T15:08:12;3.87;;;2.70;;
22097;SDS011;11215;51.938;8.464;2023-07-13T15:10:38;3.97;;;2.50;;
22097;SDS011;11215;51.938;8.464;2023-07-13T15:15:46;3.33;;;2.73;;
22097;SDS011;11215;51.938;8.464;2023-07-13T15:18:15;2.67;;;2.20;;
22097;SDS011;11215;51.938;8.464;2023-07-13T15:20:43;2.50;;;2.10;;
22097;SDS011;11215;51.938;8.464;2023-07-13T15:23:10;2.43;;;2.10;;
22097;SDS011;11215;51.938;8.464;2023-07-13T15:25:37;3.13;;;2.00;;
22097;SDS011;11215;51.938;8.464;2023-07-13T15:28:03;2.33;;;2.13;;
22097;SDS011;11215;51.938;8.464;2023-07-13T15:30:29;5.97;;;2.67;;
22097;SDS011;11215;51.938;8.464;2023-07-13T15:32:58;3.83;;;2.60;;
22097;SDS011;11215;51.938;8.464;2023-07-13T15:35:31;6.33;;;2.70;;
22097;SDS011;11215;51.938;8.464;2023-07-13T15:37:58;2.97;;;2.50;;
22097;SDS011;11215;51.938;8.464;2023-07-13T15:40:23;5.77;;;2.73;;